National Weather Service Raw Text Product

Displaying AFOS PIL: TAFALO Received: 2018-02-09 11:34 UTC


001 
FTUS43 KDMX 091134
TAFALO
TAF
KALO 091134Z 0912/1012 02014G20KT P6SM SCT035 OVC060
     FM092000 36009KT P6SM SCT050 BKN120=